createdAt,value
2022-10-12T00:01:05.673Z,33.43
2022-10-12T00:03:34.063Z,28.80
2022-10-12T00:06:10.226Z,31.83
2022-10-12T00:08:40.155Z,34.60
2022-10-12T00:11:11.459Z,30.37
2022-10-12T00:13:38.422Z,36.37
2022-10-12T00:16:08.149Z,29.40
2022-10-12T00:18:36.455Z,26.63
2022-10-12T00:21:05.783Z,34.10
2022-10-12T00:23:33.705Z,30.80
2022-10-12T00:26:11.950Z,29.80
2022-10-12T00:28:39.372Z,32.00
2022-10-12T00:31:13.080Z,28.43
2022-10-12T00:33:40.739Z,29.63
2022-10-12T00:36:16.637Z,37.83
2022-10-12T00:38:44.732Z,32.77
2022-10-12T00:41:13.289Z,27.03
2022-10-12T00:43:43.638Z,30.17
2022-10-12T00:46:25.217Z,33.73
2022-10-12T00:49:05.490Z,30.10
2022-10-12T00:51:32.822Z,33.70
2022-10-12T00:54:05.965Z,34.80
2022-10-12T00:56:37.265Z,32.40
2022-10-12T00:59:10.801Z,24.27
2022-10-12T01:01:38.456Z,26.90
2022-10-12T01:04:06.832Z,31.43
2022-10-12T01:06:34.721Z,29.03
2022-10-12T01:09:03.047Z,29.43
2022-10-12T01:11:30.012Z,29.67
2022-10-12T01:13:57.984Z,31.30
2022-10-12T01:16:32.920Z,35.00
2022-10-12T01:19:57.410Z,26.67
2022-10-12T01:22:24.775Z,34.17
2022-10-12T01:25:40.164Z,30.57
2022-10-12T01:28:49.182Z,29.30
2022-10-12T01:31:38.076Z,32.97
2022-10-12T01:34:27.300Z,32.13
2022-10-12T01:37:11.151Z,31.87
2022-10-12T01:39:52.689Z,28.73
2022-10-12T01:42:40.663Z,27.80
2022-10-12T01:45:12.619Z,24.33
2022-10-12T01:47:41.433Z,29.30
2022-10-12T01:50:12.847Z,29.33
2022-10-12T01:53:06.030Z,34.97
2022-10-12T01:56:05.557Z,36.50
2022-10-12T01:58:45.188Z,33.83
2022-10-12T02:01:30.019Z,34.23
2022-10-12T02:04:10.087Z,32.07
2022-10-12T02:07:01.882Z,30.07
2022-10-12T02:09:34.060Z,33.43
2022-10-12T02:12:08.489Z,40.50
2022-10-12T02:14:42.195Z,35.57
2022-10-12T02:17:14.526Z,33.37
2022-10-12T02:19:53.432Z,39.93
2022-10-12T02:22:20.690Z,32.67
2022-10-12T02:24:51.976Z,33.77
2022-10-12T02:27:21.291Z,28.00
2022-10-12T02:29:48.824Z,28.83
2022-10-12T02:32:29.199Z,52.40
2022-10-12T02:35:29.089Z,27.93
2022-10-12T02:38:12.014Z,28.73
2022-10-12T02:40:55.458Z,39.27
2022-10-12T02:43:33.000Z,33.53
2022-10-12T02:46:01.624Z,30.10
2022-10-12T02:48:30.079Z,30.30
2022-10-12T02:50:59.062Z,29.37
2022-10-12T02:53:29.922Z,37.97
2022-10-12T02:56:12.647Z,33.87
2022-10-12T02:58:41.409Z,29.53
2022-10-12T03:01:08.381Z,27.97
2022-10-12T03:03:35.372Z,30.00
2022-10-12T03:06:02.493Z,30.17
2022-10-12T03:08:29.543Z,29.50
2022-10-12T03:11:12.642Z,34.10
2022-10-12T03:13:39.553Z,32.63
2022-10-12T03:16:10.401Z,30.43
2022-10-12T03:18:38.392Z,29.50
2022-10-12T03:21:05.950Z,30.80
2022-10-12T03:23:32.963Z,29.40
2022-10-12T03:25:59.999Z,28.67
2022-10-12T03:28:27.029Z,30.80
2022-10-12T03:30:53.978Z,33.77
2022-10-12T03:33:21.027Z,37.80
2022-10-12T03:35:48.554Z,26.97
2022-10-12T03:38:16.703Z,34.03
2022-10-12T03:40:45.055Z,33.17
2022-10-12T03:43:12.604Z,30.13
2022-10-12T03:45:39.703Z,30.13
2022-10-12T03:48:07.648Z,27.73
2022-10-12T03:50:35.975Z,27.53
2022-10-12T03:53:04.967Z,34.60
2022-10-12T03:55:33.423Z,35.73
2022-10-12T03:58:00.512Z,35.17
2022-10-12T04:00:28.750Z,31.87
2022-10-12T04:02:55.776Z,31.90
2022-10-12T04:05:23.333Z,28.70
2022-10-12T04:07:50.668Z,31.13
2022-10-12T04:10:17.826Z,30.70
2022-10-12T04:12:45.560Z,39.03
2022-10-12T04:15:13.038Z,32.87
2022-10-12T04:17:41.132Z,31.70
2022-10-12T04:20:10.942Z,30.20
2022-10-12T04:22:39.005Z,30.47
2022-10-12T04:25:06.876Z,33.90
2022-10-12T04:27:34.152Z,29.67
2022-10-12T04:30:01.096Z,30.10
2022-10-12T04:32:28.073Z,32.73
2022-10-12T04:34:55.061Z,30.03
2022-10-12T04:37:21.976Z,32.57
2022-10-12T04:39:48.858Z,30.90
2022-10-12T04:42:15.760Z,34.50
2022-10-12T04:44:42.669Z,28.17
2022-10-12T04:47:09.618Z,33.33
2022-10-12T04:49:36.601Z,36.13
2022-10-12T04:52:03.575Z,30.30
2022-10-12T04:54:32.753Z,34.33
2022-10-12T04:56:59.695Z,37.60
2022-10-12T04:59:26.716Z,33.00
2022-10-12T05:01:54.505Z,30.83
2022-10-12T05:04:21.770Z,30.03
2022-10-12T05:06:48.712Z,32.47
2022-10-12T05:09:17.179Z,35.83
2022-10-12T05:11:44.682Z,30.30
2022-10-12T05:14:11.812Z,27.17
2022-10-12T05:16:38.761Z,28.97
2022-10-12T05:19:05.749Z,35.57
2022-10-12T05:21:33.656Z,26.47
2022-10-12T05:24:00.640Z,34.70
2022-10-12T05:26:27.699Z,35.33
2022-10-12T05:28:54.709Z,32.50
2022-10-12T05:31:21.703Z,47.33
2022-10-12T05:33:48.622Z,33.23
2022-10-12T05:36:15.766Z,31.70
2022-10-12T05:38:42.815Z,38.03
2022-10-12T05:41:09.958Z,44.63
2022-10-12T05:43:36.878Z,34.77
2022-10-12T05:46:04.671Z,29.57
2022-10-12T05:48:31.707Z,41.10
2022-10-12T05:50:58.667Z,29.67
2022-10-12T05:53:25.729Z,39.20
2022-10-12T05:56:00.782Z,34.60
2022-10-12T05:58:30.418Z,41.43
2022-10-12T06:01:07.590Z,33.03
2022-10-12T06:03:35.326Z,38.10
2022-10-12T06:06:03.508Z,31.33
2022-10-12T06:08:31.583Z,39.70
2022-10-12T06:10:58.561Z,37.73
2022-10-12T06:13:26.051Z,27.60
2022-10-12T06:15:53.479Z,31.27
2022-10-12T06:18:21.096Z,34.17
2022-10-12T06:21:08.819Z,28.50
2022-10-12T06:23:39.226Z,35.57
2022-10-12T06:26:06.575Z,32.30
2022-10-12T06:28:33.629Z,41.00
2022-10-12T06:31:01.015Z,31.50
2022-10-12T06:33:28.342Z,36.77
2022-10-12T06:35:56.104Z,29.33
2022-10-12T06:38:23.789Z,33.20
2022-10-12T06:40:50.778Z,46.97
2022-10-12T06:43:17.711Z,31.30
2022-10-12T06:45:44.663Z,29.23
2022-10-12T06:48:16.180Z,27.80
2022-10-12T06:50:46.273Z,36.75
2022-10-12T06:53:13.176Z,36.60
2022-10-12T06:55:40.900Z,36.35
2022-10-12T06:58:08.006Z,28.35
2022-10-12T07:00:35.114Z,30.60
2022-10-12T07:03:02.045Z,31.35
2022-10-12T07:05:29.404Z,30.75
2022-10-12T07:07:56.667Z,24.58
2022-10-12T07:10:25.007Z,26.50
2022-10-12T07:12:51.987Z,27.10
2022-10-12T07:15:19.436Z,30.60
2022-10-12T07:17:46.452Z,27.92
2022-10-12T07:20:13.610Z,27.92
2022-10-12T07:22:40.544Z,26.35
2022-10-12T07:25:08.021Z,29.95
2022-10-12T07:27:35.191Z,29.40
2022-10-12T07:30:02.852Z,27.83
2022-10-12T07:32:29.759Z,28.55
2022-10-12T07:34:57.059Z,23.55
2022-10-12T07:37:23.969Z,30.25
2022-10-12T07:39:50.918Z,30.08
2022-10-12T07:42:19.476Z,33.22
2022-10-12T07:44:46.647Z,25.13
2022-10-12T07:47:13.602Z,30.00
2022-10-12T07:49:40.559Z,26.75
2022-10-12T07:52:07.451Z,21.13
2022-10-12T07:54:34.393Z,20.60
2022-10-12T07:57:01.324Z,28.15
2022-10-12T07:59:28.464Z,29.55
2022-10-12T08:01:55.516Z,25.02
2022-10-12T08:04:22.514Z,23.38
2022-10-12T08:06:49.529Z,36.78
2022-10-12T08:09:16.476Z,29.88
2022-10-12T08:11:43.574Z,26.88
2022-10-12T08:14:17.037Z,25.00
2022-10-12T08:16:44.954Z,29.02
2022-10-12T08:19:12.674Z,24.23
2022-10-12T08:21:41.479Z,21.80
2022-10-12T08:24:10.067Z,21.02
2022-10-12T08:26:37.079Z,21.33
2022-10-12T08:29:06.088Z,18.27
2022-10-12T08:31:33.108Z,18.80
2022-10-12T08:34:00.831Z,24.67
2022-10-12T08:36:28.067Z,17.85
2022-10-12T08:38:55.496Z,20.98
2022-10-12T08:41:34.233Z,17.05
2022-10-12T08:44:52.335Z,23.80
2022-10-12T08:47:52.267Z,17.98
2022-10-12T08:50:30.815Z,18.33
2022-10-12T08:53:47.465Z,20.83
2022-10-12T08:56:21.715Z,22.08
2022-10-12T08:58:51.179Z,18.10
2022-10-12T09:01:38.691Z,21.55
2022-10-12T09:04:36.995Z,20.33
2022-10-12T09:07:27.255Z,16.65
2022-10-12T09:10:22.981Z,16.48
2022-10-12T09:13:08.781Z,15.50
2022-10-12T09:15:57.141Z,15.50
2022-10-12T09:18:49.730Z,16.70
2022-10-12T09:21:20.684Z,13.10
2022-10-12T09:23:49.187Z,19.52
2022-10-12T09:26:28.985Z,15.27
2022-10-12T09:28:58.378Z,17.17
2022-10-12T09:32:14.949Z,13.65
2022-10-12T09:34:42.660Z,13.82
2022-10-12T09:37:20.851Z,11.07
2022-10-12T09:39:48.410Z,16.42
2022-10-12T09:42:16.434Z,13.43
2022-10-12T09:45:01.533Z,15.10
2022-10-12T09:47:33.500Z,16.75
2022-10-12T09:50:07.286Z,12.07
2022-10-12T09:52:36.956Z,10.75
2022-10-12T09:55:23.226Z,12.85
2022-10-12T09:58:19.455Z,12.98
2022-10-12T10:01:06.338Z,14.85
2022-10-12T10:03:33.308Z,17.70
2022-10-12T10:06:05.463Z,20.27
2022-10-12T10:08:45.734Z,13.30
2022-10-12T10:11:31.607Z,17.25
2022-10-12T10:14:01.494Z,16.13
2022-10-12T10:16:30.516Z,13.75
2022-10-12T10:19:01.683Z,12.93
2022-10-12T10:21:40.230Z,12.10
2022-10-12T10:24:20.077Z,8.05
2022-10-12T10:26:55.442Z,15.85
2022-10-12T10:29:32.849Z,12.40
2022-10-12T10:32:24.357Z,8.73
2022-10-12T10:35:12.757Z,11.20
2022-10-12T10:37:56.690Z,16.98
2022-10-12T10:40:30.770Z,16.50
2022-10-12T10:43:04.104Z,10.77
2022-10-12T10:45:49.180Z,13.77
2022-10-12T10:48:20.881Z,9.57
2022-10-12T10:51:05.152Z,19.20
2022-10-12T10:53:45.565Z,14.52
2022-10-12T10:56:31.859Z,12.55
2022-10-12T10:59:14.944Z,7.15
2022-10-12T11:02:03.496Z,8.27
2022-10-12T11:04:39.802Z,10.35
2022-10-12T11:07:33.258Z,8.02
2022-10-12T11:10:06.243Z,11.95
2022-10-12T11:12:46.368Z,12.18
2022-10-12T11:15:23.743Z,7.60
2022-10-12T11:18:30.776Z,7.05
2022-10-12T11:21:29.875Z,12.00
2022-10-12T11:24:16.395Z,15.40
2022-10-12T11:27:31.676Z,17.15
2022-10-12T11:30:10.231Z,10.63
2022-10-12T11:32:56.308Z,7.00
2022-10-12T11:35:34.903Z,9.13
2022-10-12T11:38:15.185Z,8.95
2022-10-12T11:41:09.210Z,7.07
2022-10-12T11:44:13.242Z,8.10
2022-10-12T11:46:53.249Z,11.57
2022-10-12T11:49:44.576Z,11.90
2022-10-12T11:52:12.396Z,10.40
2022-10-12T11:55:17.201Z,10.18
2022-10-12T11:57:44.429Z,6.80
2022-10-12T12:00:29.888Z,5.95
2022-10-12T12:03:26.806Z,12.85
2022-10-12T12:05:53.870Z,6.68
2022-10-12T12:08:39.154Z,5.10
2022-10-12T12:11:26.235Z,10.45
2022-10-12T12:14:21.799Z,7.90
2022-10-12T12:16:49.818Z,11.05
2022-10-12T12:19:39.694Z,6.30
2022-10-12T12:22:23.638Z,7.30
2022-10-12T12:25:13.380Z,4.93
2022-10-12T12:28:00.504Z,11.27
2022-10-12T12:30:40.666Z,7.13
2022-10-12T12:33:30.970Z,5.43
2022-10-12T12:36:02.984Z,6.65
2022-10-12T12:38:46.248Z,7.10
2022-10-12T12:41:19.870Z,8.05
2022-10-12T12:43:58.098Z,10.40
2022-10-12T12:46:46.455Z,8.32
2022-10-12T12:49:48.921Z,7.85
2022-10-12T12:52:24.722Z,8.10
2022-10-12T12:55:20.214Z,6.68
2022-10-12T12:58:29.414Z,7.95
2022-10-12T13:01:27.879Z,6.10
2022-10-12T13:04:55.737Z,6.88
2022-10-12T13:07:52.912Z,10.23
2022-10-12T13:11:15.353Z,7.95
2022-10-12T13:13:59.667Z,9.65
2022-10-12T13:19:36.635Z,8.50
2022-10-12T13:22:13.466Z,15.38
2022-10-12T13:24:53.954Z,8.90
2022-10-12T13:27:49.173Z,14.73
2022-10-12T13:31:09.515Z,11.00
2022-10-12T13:33:56.142Z,6.22
2022-10-12T13:36:36.486Z,11.18
2022-10-12T13:39:21.168Z,6.20
2022-10-12T13:41:53.407Z,8.02
2022-10-12T13:44:28.334Z,8.65
2022-10-12T13:47:01.840Z,9.40
2022-10-12T13:49:35.245Z,6.28
2022-10-12T13:52:21.860Z,9.10
2022-10-12T13:54:50.423Z,9.32
2022-10-12T13:57:50.289Z,6.55
2022-10-12T14:00:17.294Z,10.88
2022-10-12T14:02:58.114Z,7.30
2022-10-12T14:05:28.108Z,9.05
2022-10-12T14:08:28.757Z,8.07
2022-10-12T14:10:58.431Z,9.23
2022-10-12T14:13:34.746Z,7.05
2022-10-12T14:16:04.720Z,6.78
2022-10-12T14:18:44.963Z,11.05
2022-10-12T14:21:18.627Z,8.85
2022-10-12T14:24:19.683Z,10.05
2022-10-12T14:26:56.991Z,8.75
2022-10-12T14:29:46.425Z,16.52
2022-10-12T14:32:13.188Z,8.50
2022-10-12T14:35:03.258Z,15.93
2022-10-12T14:37:30.761Z,16.15
2022-10-12T14:40:02.481Z,12.93
2022-10-12T14:42:35.713Z,12.82
2022-10-12T14:45:06.859Z,12.55
2022-10-12T14:47:39.270Z,11.85
2022-10-12T14:50:09.721Z,9.70
2022-10-12T14:52:43.952Z,16.92
2022-10-12T14:55:27.655Z,17.92
2022-10-12T14:57:55.100Z,15.82
2022-10-12T15:00:33.835Z,17.58
2022-10-12T15:03:01.624Z,19.70
2022-10-12T15:05:31.902Z,15.32
2022-10-12T15:08:00.761Z,23.08
2022-10-12T15:10:29.224Z,16.65
2022-10-12T15:12:56.162Z,18.20
2022-10-12T15:15:29.288Z,10.65
2022-10-12T15:17:57.227Z,16.70
2022-10-12T15:20:25.763Z,15.15
2022-10-12T15:22:52.794Z,17.70
2022-10-12T15:26:01.029Z,11.57
2022-10-12T15:28:29.868Z,19.25
2022-10-12T15:31:20.025Z,19.58
2022-10-12T15:33:47.067Z,8.88
2022-10-12T15:36:14.067Z,11.32
2022-10-12T15:38:41.003Z,17.35
2022-10-12T15:41:17.373Z,19.92
2022-10-12T15:43:44.307Z,19.13
2022-10-12T15:46:14.386Z,26.38
2022-10-12T15:48:41.821Z,16.35
2022-10-12T15:51:19.493Z,22.77
2022-10-12T15:53:46.560Z,22.25
2022-10-12T15:56:16.087Z,21.08
2022-10-12T15:58:43.565Z,18.67
2022-10-12T16:01:19.759Z,19.05
2022-10-12T16:03:47.950Z,22.75
2022-10-12T16:06:15.303Z,26.25
2022-10-12T16:08:42.550Z,24.38
2022-10-12T16:11:14.634Z,19.00
2022-10-12T16:13:48.011Z,36.22
2022-10-12T16:16:19.275Z,25.75
2022-10-12T16:18:46.187Z,24.50
2022-10-12T16:21:13.209Z,20.70
2022-10-12T16:23:41.099Z,31.77
2022-10-12T16:26:13.385Z,27.92
2022-10-12T16:28:40.960Z,30.13
2022-10-12T16:31:15.311Z,35.22
2022-10-12T16:33:42.364Z,25.63
2022-10-12T16:36:13.401Z,37.80
2022-10-12T16:38:41.013Z,32.75
2022-10-12T16:41:13.585Z,25.70
2022-10-12T16:43:40.889Z,23.95
2022-10-12T16:46:08.479Z,25.15
2022-10-12T16:48:36.350Z,21.35
2022-10-12T16:51:10.854Z,32.58
2022-10-12T16:53:38.151Z,23.27
2022-10-12T16:56:05.500Z,27.58
2022-10-12T16:58:33.046Z,26.27
2022-10-12T17:01:09.845Z,27.38
2022-10-12T17:03:36.880Z,22.73
2022-10-12T17:06:04.033Z,29.65
2022-10-12T17:08:35.682Z,20.15
2022-10-12T17:11:11.939Z,29.73
2022-10-12T17:13:43.135Z,19.58
2022-10-12T17:16:33.975Z,23.10
2022-10-12T17:19:01.188Z,27.27
2022-10-12T17:21:28.776Z,24.10
2022-10-12T17:24:00.247Z,19.75
2022-10-12T17:26:27.535Z,26.83
2022-10-12T17:28:54.834Z,25.17
2022-10-12T17:31:21.810Z,24.35
2022-10-12T17:33:49.310Z,29.42
2022-10-12T17:36:16.375Z,16.75
2022-10-12T17:38:43.310Z,17.35
2022-10-12T17:41:10.224Z,24.00
2022-10-12T17:43:37.154Z,24.02
2022-10-12T17:46:07.301Z,18.52
2022-10-12T17:48:34.555Z,21.00
2022-10-12T17:51:12.329Z,26.23
2022-10-12T17:53:40.093Z,23.80
2022-10-12T17:56:11.358Z,28.73
2022-10-12T17:58:38.344Z,25.48
2022-10-12T18:01:08.389Z,22.38
2022-10-12T18:03:35.752Z,24.48
2022-10-12T18:06:08.091Z,26.90
2022-10-12T18:08:35.656Z,31.10
2022-10-12T18:11:05.624Z,23.80
2022-10-12T18:13:34.360Z,29.10
2022-10-12T18:16:01.813Z,20.48
2022-10-12T18:18:29.237Z,23.92
2022-10-12T18:20:56.212Z,25.23
2022-10-12T18:23:23.158Z,17.15
2022-10-12T18:25:51.119Z,22.45
2022-10-12T18:28:18.259Z,22.90
2022-10-12T18:30:50.643Z,25.02
2022-10-12T18:33:17.957Z,28.45
2022-10-12T18:35:45.014Z,21.65
2022-10-12T18:38:11.975Z,20.80
2022-10-12T18:40:42.235Z,19.65
2022-10-12T18:43:10.374Z,23.17
2022-10-12T18:45:45.048Z,18.25
2022-10-12T18:48:13.108Z,23.45
2022-10-12T18:50:40.276Z,36.65
2022-10-12T18:53:07.348Z,39.13
2022-10-12T18:55:40.671Z,26.40
2022-10-12T18:58:07.679Z,22.20
2022-10-12T19:00:34.679Z,22.48
2022-10-12T19:03:01.659Z,26.35
2022-10-12T19:05:28.598Z,19.80
2022-10-12T19:07:55.546Z,25.27
2022-10-12T19:10:22.473Z,26.13
2022-10-12T19:12:49.415Z,27.27
2022-10-12T19:15:16.500Z,17.88
2022-10-12T19:17:43.451Z,24.75
2022-10-12T19:20:10.802Z,20.23
2022-10-12T19:22:38.242Z,27.90
2022-10-12T19:25:05.855Z,29.35
2022-10-12T19:27:32.804Z,45.92
2022-10-12T19:29:59.747Z,24.33
2022-10-12T19:32:26.685Z,26.40
2022-10-12T19:34:54.617Z,27.10
2022-10-12T19:37:21.668Z,22.33
2022-10-12T19:39:49.123Z,25.45
2022-10-12T19:42:16.322Z,18.10
2022-10-12T19:44:43.539Z,23.88
2022-10-12T19:47:10.605Z,21.35
2022-10-12T19:49:40.886Z,22.25
2022-10-12T19:52:10.109Z,21.20
2022-10-12T19:54:37.075Z,22.13
2022-10-12T19:57:04.248Z,21.48
2022-10-12T19:59:31.201Z,28.10
2022-10-12T20:01:58.172Z,24.33
2022-10-12T20:04:25.124Z,26.48
2022-10-12T20:06:52.072Z,23.45
2022-10-12T20:09:19.041Z,26.30
2022-10-12T20:11:45.969Z,29.10
2022-10-12T20:14:12.968Z,20.50
2022-10-12T20:16:40.139Z,22.95
2022-10-12T20:19:07.328Z,23.52
2022-10-12T20:21:36.481Z,37.28
2022-10-12T20:24:04.061Z,65.53
2022-10-12T20:26:31.106Z,34.35
2022-10-12T20:28:58.242Z,23.88
2022-10-12T20:31:27.463Z,24.13
2022-10-12T20:33:56.152Z,17.08
2022-10-12T20:36:26.598Z,22.83
2022-10-12T20:38:54.237Z,25.52
2022-10-12T20:41:21.945Z,23.95
2022-10-12T20:43:49.081Z,22.23
2022-10-12T20:46:18.372Z,16.35
2022-10-12T20:48:45.935Z,20.25
2022-10-12T20:51:35.917Z,16.70
2022-10-12T20:54:05.661Z,20.45
2022-10-12T20:56:33.949Z,27.77
2022-10-12T20:59:01.777Z,38.83
2022-10-12T21:01:29.308Z,54.33
2022-10-12T21:03:56.918Z,31.88
2022-10-12T21:06:25.060Z,23.50
2022-10-12T21:08:54.426Z,23.00
2022-10-12T21:11:22.149Z,29.98
2022-10-12T21:13:49.685Z,20.95
2022-10-12T21:16:16.877Z,24.20
2022-10-12T21:18:43.855Z,20.30
2022-10-12T21:21:16.212Z,26.52
2022-10-12T21:23:45.964Z,19.40
2022-10-12T21:26:17.379Z,20.10
2022-10-12T21:28:45.502Z,31.95
2022-10-12T21:31:13.793Z,19.90
2022-10-12T21:33:41.302Z,17.58
2022-10-12T21:36:19.249Z,22.13
2022-10-12T21:38:47.242Z,21.60
2022-10-12T21:41:16.636Z,21.63
2022-10-12T21:43:45.303Z,29.00
2022-10-12T21:46:17.906Z,19.65
2022-10-12T21:48:45.741Z,21.30
2022-10-12T21:51:13.179Z,18.43
2022-10-12T21:53:40.851Z,26.27
2022-10-12T21:56:18.658Z,13.27
2022-10-12T21:58:46.542Z,20.13
2022-10-12T22:01:17.488Z,15.30
2022-10-12T22:03:45.257Z,23.17
2022-10-12T22:06:18.425Z,18.30
2022-10-12T22:08:54.304Z,18.92
2022-10-12T22:11:21.840Z,17.65
2022-10-12T22:13:49.120Z,25.20
2022-10-12T22:16:18.588Z,21.60
2022-10-12T22:18:46.120Z,18.40
2022-10-12T22:21:16.758Z,19.47
2022-10-12T22:23:45.129Z,19.98
2022-10-12T22:26:17.612Z,18.27
2022-10-12T22:28:44.828Z,21.83
2022-10-12T22:31:14.446Z,25.23
2022-10-12T22:33:41.493Z,23.67
2022-10-12T22:36:11.211Z,22.50
2022-10-12T22:38:38.219Z,23.03
2022-10-12T22:41:15.245Z,18.67
2022-10-12T22:43:42.703Z,26.13
2022-10-12T22:46:10.186Z,19.77
2022-10-12T22:48:38.094Z,23.20
2022-10-12T22:51:06.596Z,23.90
2022-10-12T22:53:34.778Z,17.53
2022-10-12T22:56:13.198Z,26.57
2022-10-12T22:58:40.199Z,20.13
2022-10-12T23:01:13.006Z,17.13
2022-10-12T23:03:40.950Z,19.23
2022-10-12T23:06:09.182Z,26.77
2022-10-12T23:08:36.852Z,19.37
2022-10-12T23:11:10.616Z,18.27
2022-10-12T23:13:39.156Z,15.57
2022-10-12T23:16:19.706Z,22.47
2022-10-12T23:18:47.195Z,20.70
2022-10-12T23:21:17.399Z,14.53
2022-10-12T23:23:45.724Z,22.20
2022-10-12T23:26:21.961Z,18.40
2022-10-12T23:28:49.531Z,25.87
2022-10-12T23:31:23.097Z,21.63
2022-10-12T23:33:54.048Z,23.07
2022-10-12T23:36:21.033Z,19.07
2022-10-12T23:38:48.014Z,16.57
2022-10-12T23:41:15.118Z,21.37
2022-10-12T23:43:42.427Z,18.10
2022-10-12T23:46:12.175Z,28.23
2022-10-12T23:48:39.983Z,17.57
2022-10-12T23:51:09.178Z,24.70
2022-10-12T23:53:37.086Z,21.97
2022-10-12T23:56:06.575Z,18.07
2022-10-12T23:58:34.263Z,21.17
